INFORMACIÓN METAR y TAF
METAR FOR LELO
ADDS - METARS form results

(0307 UTC 15 November 2019)
Data provider http://aviationweather.gov/metar/data/
 
METAR text: LELO 150300Z AUTO 27005KT CAVOK 03/02 Q1000
Conditions at: LELO (LOGRONO/AGONCILL, ES) observed 0300 UTC 15 November 2019
Temperature: 3.0°C (37°F)
Dewpoint: 2.0°C (36°F) [RH = 93%]
Pressure (altimeter): 29.53 inches Hg (1000.0 mb)
Winds: from the W (270 degrees) at 6 MPH (5 knots; 2.6 m/s)
Visibility: 6 or more miles (10+ km)
Ceiling: ceiling and visibility are OK
Clouds: unknown
Weather: no significant weather observed at this time

METAR text: LELO 150230Z AUTO 24002KT CAVOK 03/02 Q1001
Conditions at: LELO (LOGRONO/AGONCILL, ES) observed 0230 UTC 15 November 2019
Temperature: 3.0°C (37°F)
Dewpoint: 2.0°C (36°F) [RH = 93%]
Pressure (altimeter): 29.56 inches Hg (1001.0 mb)
Winds: from the WSW (240 degrees) at 2 MPH (2 knots; 1.0 m/s)
Visibility: 6 or more miles (10+ km)
Ceiling: ceiling and visibility are OK
Clouds: unknown
Weather: no significant weather observed at this time

Forecast for: LELO (LOGRONO/AGONCILL, ES)
Text: TAF LELO 150200Z 1503/1512 27010KT 9999 FEW035 BKN045
Forecast period: 0300 to 1200 UTC 15 November 2019
Forecast type: FROM: standard forecast or significant change
Winds: from the W (270 degrees) at 12 MPH (10 knots; 5.1 m/s)
Visibility: 6 or more miles 10+ km)
Ceiling: 4500 feet AGL
Clouds: few clouds at 3500 feet AGL
broken clouds at 4500 feet AGL
Weather: no significant weather forecast for this period

 MAPA DE AEROPUERTO

 INFORMACIÓN DE PISTA

 FRECUANCIAS DEL AEROPUERTO

 RADIO AYUDAS DEL AEROPUERTO
Tipo NDB Nombre Logrono Frecuencia 399 KHZ




Powered by Virtual Airlines Manager